createdAt,value
2018-06-12T00:03:33.572Z,19.30
2018-06-12T00:08:36.844Z,21.00
2018-06-12T00:13:40.063Z,20.37
2018-06-12T00:18:43.263Z,22.33
2018-06-12T00:23:46.378Z,20.43
2018-06-12T00:28:52.084Z,20.77
2018-06-12T00:33:56.043Z,18.77
2018-06-12T00:38:59.337Z,20.07
2018-06-12T00:44:02.638Z,18.97
2018-06-12T00:49:05.860Z,18.50
2018-06-12T00:54:09.020Z,16.13
2018-06-12T00:59:12.155Z,16.40
2018-06-12T01:04:15.292Z,15.00
2018-06-12T01:09:18.485Z,16.03
2018-06-12T01:14:21.741Z,16.60
2018-06-12T01:19:24.923Z,15.83
2018-06-12T01:24:28.081Z,19.17
2018-06-12T01:29:31.230Z,17.90
2018-06-12T01:34:34.709Z,18.50
2018-06-12T01:39:37.954Z,18.50
2018-06-12T01:44:42.141Z,19.53
2018-06-12T01:49:45.355Z,18.07
2018-06-12T01:54:48.555Z,17.70
2018-06-12T01:59:51.658Z,19.30
2018-06-12T02:04:55.085Z,19.87
2018-06-12T02:09:58.242Z,20.13
2018-06-12T02:15:01.404Z,19.53
2018-06-12T02:20:04.636Z,19.20
2018-06-12T02:25:07.818Z,20.23
2018-06-12T02:30:11.443Z,18.43
2018-06-12T02:35:14.697Z,19.60
2018-06-12T02:40:17.910Z,19.90
2018-06-12T02:45:21.135Z,19.10
2018-06-12T02:50:24.476Z,16.80
2018-06-12T02:55:27.666Z,17.20
2018-06-12T03:00:30.797Z,17.50
2018-06-12T03:05:33.964Z,17.17
2018-06-12T03:10:37.122Z,17.50
2018-06-12T03:15:40.257Z,17.60
2018-06-12T03:20:45.385Z,16.90
2018-06-12T03:25:58.306Z,18.20
2018-06-12T03:31:01.484Z,17.73
2018-06-12T03:36:04.771Z,17.37
2018-06-12T03:41:07.916Z,18.60
2018-06-12T03:46:11.076Z,19.50
2018-06-12T03:51:14.207Z,15.40
2018-06-12T03:56:17.306Z,16.10
2018-06-12T04:01:20.526Z,15.90
2018-06-12T04:06:23.695Z,13.40
2018-06-12T04:11:27.061Z,15.07
2018-06-12T04:16:30.550Z,15.17
2018-06-12T04:21:34.831Z,16.07
2018-06-12T04:26:39.811Z,14.00
2018-06-12T04:31:44.180Z,13.90
2018-06-12T04:36:47.827Z,13.03
2018-06-12T04:41:51.342Z,13.40
2018-06-12T04:46:54.547Z,13.43
2018-06-12T04:51:57.797Z,12.67
2018-06-12T04:57:01.078Z,15.40
2018-06-12T05:02:04.475Z,13.43
2018-06-12T05:07:07.954Z,13.23
2018-06-12T05:12:11.283Z,13.03
2018-06-12T05:17:14.695Z,13.57
2018-06-12T05:22:18.019Z,15.57
2018-06-12T05:27:21.183Z,13.83
2018-06-12T05:32:24.394Z,13.60
2018-06-12T05:37:27.678Z,13.73
2018-06-12T05:42:30.855Z,12.50
2018-06-12T05:47:34.653Z,12.93
2018-06-12T05:52:38.970Z,12.60
2018-06-12T06:10:12.407Z,10.67
2018-06-12T06:15:15.578Z,10.10
2018-06-12T06:20:19.006Z,10.53
2018-06-12T06:25:22.199Z,10.80
2018-06-12T06:30:25.295Z,9.20
2018-06-12T06:35:28.579Z,9.63
2018-06-12T06:40:31.936Z,10.30
2018-06-12T06:45:35.112Z,10.30
2018-06-12T06:50:38.300Z,11.70
2018-06-12T06:55:41.418Z,11.77
2018-06-12T07:00:44.573Z,11.67
2018-06-12T07:05:47.746Z,12.10
2018-06-12T07:10:50.866Z,13.10
2018-06-12T07:15:53.960Z,12.80
2018-06-12T07:21:06.282Z,14.77
2018-06-12T07:26:09.343Z,13.17
2018-06-12T07:31:12.671Z,13.03
2018-06-12T07:36:15.986Z,14.30
2018-06-12T07:41:19.095Z,15.27
2018-06-12T07:46:22.214Z,14.80
2018-06-12T07:51:25.323Z,16.20
2018-06-12T07:56:28.518Z,15.33
2018-06-12T08:01:31.732Z,15.40
2018-06-12T08:06:35.057Z,16.30
2018-06-12T08:11:38.215Z,17.67
2018-06-12T08:16:41.398Z,15.63
2018-06-12T08:21:44.519Z,15.03
2018-06-12T08:26:47.646Z,15.97
2018-06-12T08:31:50.827Z,15.53
2018-06-12T08:36:53.978Z,15.20
2018-06-12T08:41:57.298Z,14.67
2018-06-12T08:47:00.598Z,15.87
2018-06-12T08:52:03.935Z,15.30
2018-06-12T08:57:07.346Z,16.37
2018-06-12T09:02:10.558Z,15.30
2018-06-12T09:07:14.062Z,14.93
2018-06-12T09:12:17.235Z,15.77
2018-06-12T09:17:20.396Z,17.13
2018-06-12T09:22:23.575Z,18.83
2018-06-12T09:27:26.771Z,17.40
2018-06-12T09:32:30.294Z,16.43
2018-06-12T09:37:33.530Z,17.20
2018-06-12T09:42:36.702Z,17.27
2018-06-12T09:47:39.883Z,17.23
2018-06-12T09:52:43.153Z,20.10
2018-06-12T09:57:46.377Z,18.47
2018-06-12T10:02:49.923Z,18.37
2018-06-12T10:07:53.299Z,18.63
2018-06-12T10:12:56.414Z,17.97
2018-06-12T10:17:59.570Z,18.63
2018-06-12T10:23:02.931Z,18.67
2018-06-12T10:28:06.086Z,17.30
2018-06-12T10:33:09.204Z,17.60
2018-06-12T10:38:12.340Z,19.07
2018-06-12T10:43:15.660Z,18.57
2018-06-12T10:48:18.969Z,18.80
2018-06-12T10:53:22.174Z,17.60
2018-06-12T10:58:25.282Z,15.40
2018-06-12T11:03:28.750Z,17.30
2018-06-12T11:08:32.136Z,17.00
2018-06-12T11:13:35.449Z,17.03
2018-06-12T11:18:38.719Z,14.93
2018-06-12T11:23:42.063Z,15.30
2018-06-12T11:28:45.233Z,17.00
2018-06-12T11:33:48.404Z,15.83
2018-06-12T11:38:52.191Z,16.70
2018-06-12T11:43:55.367Z,16.13
2018-06-12T11:48:58.723Z,16.73
2018-06-12T11:54:01.880Z,16.13
2018-06-12T11:59:05.335Z,13.60
2018-06-12T12:04:08.744Z,16.30
2018-06-12T12:09:11.963Z,15.27
2018-06-12T12:14:15.123Z,14.97
2018-06-12T12:19:18.400Z,12.20
2018-06-12T12:24:21.545Z,13.00
2018-06-12T12:29:24.752Z,12.23
2018-06-12T12:34:28.198Z,12.93
2018-06-12T12:39:31.603Z,13.03
2018-06-12T12:44:34.870Z,11.73
2018-06-12T12:49:38.012Z,10.40
2018-06-12T12:54:41.523Z,10.90
2018-06-12T12:59:44.939Z,11.40
2018-06-12T13:04:48.127Z,10.57
2018-06-12T13:09:51.301Z,10.77
2018-06-12T13:14:54.472Z,10.87
2018-06-12T13:19:57.814Z,12.10
2018-06-12T13:25:01.168Z,10.57
2018-06-12T13:30:04.519Z,10.70
2018-06-12T13:35:07.976Z,9.57
2018-06-12T13:40:11.354Z,9.83
2018-06-12T13:45:14.618Z,9.00
2018-06-12T13:50:17.777Z,9.23
2018-06-12T13:55:21.155Z,8.77
2018-06-12T14:00:24.331Z,8.37
2018-06-12T14:05:27.510Z,9.23
2018-06-12T14:10:30.843Z,8.10
2018-06-12T14:15:34.213Z,8.27
2018-06-12T14:20:37.407Z,7.23
2018-06-12T14:25:40.655Z,7.07
2018-06-12T14:30:43.996Z,6.90
2018-06-12T14:35:47.204Z,6.50
2018-06-12T14:40:50.602Z,7.37
2018-06-12T14:45:54.022Z,6.93
2018-06-12T14:50:57.444Z,7.23
2018-06-12T14:56:00.628Z,7.30
2018-06-12T15:01:03.846Z,7.03
2018-06-12T15:06:07.143Z,8.00
2018-06-12T15:11:10.564Z,8.00
2018-06-12T15:16:13.836Z,7.43
2018-06-12T15:21:17.019Z,7.00
2018-06-12T15:26:20.270Z,7.23
2018-06-12T15:31:23.543Z,6.67
2018-06-12T15:36:26.927Z,7.33
2018-06-12T15:41:30.568Z,7.67
2018-06-12T15:46:33.956Z,7.73
2018-06-12T15:51:37.584Z,7.67
2018-06-12T15:56:41.378Z,7.70
2018-06-12T16:01:44.764Z,6.63
2018-06-12T16:06:48.103Z,6.07
2018-06-12T16:11:51.317Z,6.83
2018-06-12T16:16:55.544Z,6.70
2018-06-12T16:21:59.096Z,7.00
2018-06-12T16:27:02.474Z,6.80
2018-06-12T16:32:06.056Z,6.27
2018-06-12T16:37:09.297Z,6.73
2018-06-12T16:42:12.598Z,6.67
2018-06-12T16:52:25.688Z,8.17
2018-06-12T16:57:28.962Z,7.83
2018-06-12T17:02:32.277Z,7.53
2018-06-12T17:07:35.668Z,7.80
2018-06-12T17:12:38.974Z,8.13
2018-06-12T17:17:42.374Z,8.77
2018-06-12T17:22:45.579Z,7.93
2018-06-12T17:27:48.808Z,8.00
2018-06-12T17:32:52.242Z,8.43
2018-06-12T17:37:55.644Z,8.53
2018-06-12T17:42:58.944Z,9.27
2018-06-12T17:48:02.379Z,8.73
2018-06-12T17:53:05.622Z,8.83
2018-06-12T17:58:08.896Z,8.53
2018-06-12T18:03:12.320Z,9.40
2018-06-12T18:08:15.595Z,9.13
2018-06-12T18:13:25.303Z,9.17
2018-06-12T18:18:28.607Z,8.73
2018-06-12T18:23:31.767Z,8.73
2018-06-12T18:28:35.208Z,8.13
2018-06-12T18:33:38.793Z,8.00
2018-06-12T18:38:42.132Z,9.77
2018-06-12T18:43:45.605Z,8.70
2018-06-12T18:48:48.972Z,8.80
2018-06-12T18:53:52.555Z,8.83
2018-06-12T18:58:56.116Z,9.60
2018-06-12T19:03:59.558Z,9.57
2018-06-12T19:09:02.982Z,10.93
2018-06-12T19:14:06.574Z,7.70
2018-06-12T19:19:10.126Z,8.13
2018-06-12T19:24:13.627Z,8.63
2018-06-12T19:29:17.100Z,9.27
2018-06-12T19:34:20.646Z,10.10
2018-06-12T19:39:23.833Z,8.93
2018-06-12T19:44:27.186Z,10.60
2018-06-12T19:49:30.668Z,9.60
2018-06-12T19:54:34.172Z,11.07
2018-06-12T19:59:37.631Z,10.20
2018-06-12T20:04:40.989Z,9.50
2018-06-12T20:09:44.444Z,10.27
2018-06-12T20:14:48.154Z,9.43
2018-06-12T20:19:51.959Z,9.10
2018-06-12T20:24:55.419Z,10.13
2018-06-12T20:29:58.895Z,8.40
2018-06-12T20:35:02.310Z,9.13
2018-06-12T20:40:05.786Z,10.30
2018-06-12T20:45:09.215Z,9.63
2018-06-12T20:50:12.534Z,9.80
2018-06-12T20:55:15.856Z,10.30
2018-06-12T21:00:19.293Z,8.90
2018-06-12T21:05:22.774Z,8.90
2018-06-12T21:10:26.401Z,7.43
2018-06-12T21:15:29.775Z,7.53
2018-06-12T21:20:33.017Z,8.00
2018-06-12T21:25:36.328Z,8.10
2018-06-12T21:30:39.785Z,7.60
2018-06-12T21:35:43.160Z,8.37
2018-06-12T21:40:46.393Z,8.40
2018-06-12T21:45:49.955Z,8.93
2018-06-12T21:50:53.597Z,9.50
2018-06-12T21:55:57.112Z,8.93
2018-06-12T22:01:00.602Z,9.20
2018-06-12T22:06:04.333Z,9.37
2018-06-12T22:11:07.643Z,9.77
2018-06-12T22:16:12.808Z,9.23
2018-06-12T22:21:16.202Z,9.97
2018-06-12T22:26:19.484Z,9.13
2018-06-12T22:31:22.802Z,10.80
2018-06-12T22:36:26.216Z,9.60
2018-06-12T22:41:29.468Z,10.00
2018-06-12T22:46:32.730Z,11.50
2018-06-12T22:51:35.955Z,12.17
2018-06-12T22:56:39.115Z,12.10
2018-06-12T23:01:42.441Z,12.40
2018-06-12T23:06:45.770Z,14.43
2018-06-12T23:11:48.926Z,12.60
2018-06-12T23:16:52.158Z,14.30
2018-06-12T23:21:59.211Z,13.63
2018-06-12T23:27:02.516Z,14.10
2018-06-12T23:32:05.533Z,14.07
2018-06-12T23:37:08.935Z,14.43
2018-06-12T23:42:12.356Z,13.90
2018-06-12T23:47:15.561Z,12.73
2018-06-12T23:52:18.870Z,12.83
2018-06-12T23:57:22.179Z,13.27
